createdAt,value
2019-01-25T00:00:29.254Z,1015.47
2019-01-25T00:01:38.738Z,1015.45
2019-01-25T00:02:48.486Z,1015.45
2019-01-25T00:03:58.223Z,1015.49
2019-01-25T00:05:07.714Z,1015.47
2019-01-25T00:06:17.719Z,1015.49
2019-01-25T00:07:27.715Z,1015.48
2019-01-25T00:08:37.703Z,1015.48
2019-01-25T00:09:47.700Z,1015.45
2019-01-25T00:11:03.933Z,1015.46
2019-01-25T00:12:13.671Z,1015.45
2019-01-25T00:13:23.425Z,1015.44
2019-01-25T00:14:33.175Z,1015.43
2019-01-25T00:15:42.150Z,1015.49
2019-01-25T00:16:51.375Z,1015.44
2019-01-25T00:18:01.139Z,1015.47
2019-01-25T00:19:11.139Z,1015.47
2019-01-25T00:20:21.126Z,1015.48
2019-01-25T00:21:30.877Z,1015.51
2019-01-25T00:22:40.884Z,1015.5
2019-01-25T00:23:50.142Z,1015.53
2019-01-25T00:24:59.903Z,1015.48
2019-01-25T00:26:10.142Z,1015.47
2019-01-25T00:27:19.883Z,1015.51
2019-01-25T00:28:29.875Z,1015.51
2019-01-25T00:29:39.413Z,1015.52
2019-01-25T00:30:49.417Z,1015.53
2019-01-25T00:31:58.891Z,1015.5
2019-01-25T00:33:08.877Z,1015.52
2019-01-25T00:34:18.362Z,1015.48
2019-01-25T00:35:28.098Z,1015.5
2019-01-25T00:36:37.837Z,1015.51
2019-01-25T00:37:47.846Z,1015.47
2019-01-25T00:38:57.073Z,1015.44
2019-01-25T00:40:07.068Z,1015.43
2019-01-25T00:41:16.550Z,1015.44
2019-01-25T00:42:26.543Z,1015.47
2019-01-25T00:43:36.281Z,1015.48
2019-01-25T00:44:46.286Z,1015.45
2019-01-25T00:45:55.817Z,1015.45
2019-01-25T00:47:05.556Z,1015.46
2019-01-25T00:48:14.780Z,1015.48
2019-01-25T00:49:24.767Z,1015.51
2019-01-25T00:50:34.757Z,1015.49
2019-01-25T00:51:44.750Z,1015.52
2019-01-25T00:52:54.485Z,1015.5
2019-01-25T00:54:04.517Z,1015.47
2019-01-25T00:55:13.995Z,1015.46
2019-01-25T00:56:23.739Z,1015.45
2019-01-25T00:57:33.274Z,1015.48
2019-01-25T00:58:43.030Z,1015.45
2019-01-25T00:59:52.511Z,1015.44
2019-01-25T01:01:02.505Z,1015.47
2019-01-25T01:02:12.238Z,1015.46
2019-01-25T01:03:21.971Z,1015.46
2019-01-25T01:04:31.713Z,1015.45
2019-01-25T01:05:40.942Z,1015.45
2019-01-25T01:06:50.674Z,1015.43
2019-01-25T01:08:00.664Z,1015.42
2019-01-25T01:09:10.405Z,1015.48
2019-01-25T01:10:19.888Z,1015.47
2019-01-25T01:11:29.366Z,1015.5
2019-01-25T01:12:39.107Z,1015.5
2019-01-25T01:13:48.594Z,1015.49
2019-01-25T01:14:58.075Z,1015.46
2019-01-25T01:16:07.663Z,1015.42
2019-01-25T01:17:18.599Z,1015.46
2019-01-25T01:18:28.339Z,1015.48
2019-01-25T01:19:38.077Z,1015.54
2019-01-25T01:20:47.813Z,1015.51
2019-01-25T01:21:57.551Z,1015.53
2019-01-25T01:23:07.544Z,1015.53
2019-01-25T01:24:17.278Z,1015.5
2019-01-25T01:25:26.757Z,1015.55
2019-01-25T01:26:36.239Z,1015.63
2019-01-25T01:27:45.718Z,1015.59
2019-01-25T01:28:55.459Z,1015.65
2019-01-25T01:30:05.200Z,1015.69
2019-01-25T01:31:15.191Z,1015.65
2019-01-25T01:32:24.927Z,1015.64
2019-01-25T01:33:34.677Z,1015.65
2019-01-25T01:34:44.419Z,1015.69
2019-01-25T01:35:54.402Z,1015.67
2019-01-25T01:37:03.889Z,1015.68
2019-01-25T01:38:13.374Z,1015.71
2019-01-25T01:39:23.364Z,1015.66
2019-01-25T01:40:33.105Z,1015.74
2019-01-25T01:41:42.852Z,1015.74
2019-01-25T01:42:52.343Z,1015.75
2019-01-25T01:44:01.570Z,1015.75
2019-01-25T01:45:11.049Z,1015.76
2019-01-25T01:46:20.790Z,1015.73
2019-01-25T01:47:30.280Z,1015.72
2019-01-25T01:48:40.025Z,1015.68
2019-01-25T01:49:49.506Z,1015.69
2019-01-25T01:50:59.237Z,1015.72
2019-01-25T01:52:08.721Z,1015.72
2019-01-25T01:53:18.709Z,1015.7
2019-01-25T01:54:28.697Z,1015.67
2019-01-25T01:55:38.428Z,1015.65
2019-01-25T01:56:47.911Z,1015.63
2019-01-25T01:57:57.904Z,1015.66
2019-01-25T01:59:07.895Z,1015.69
2019-01-25T02:00:17.385Z,1015.69
2019-01-25T02:01:26.615Z,1015.67
2019-01-25T02:02:36.397Z,1015.68
2019-01-25T02:03:46.129Z,1015.7
2019-01-25T02:04:55.882Z,1015.69
2019-01-25T02:06:05.879Z,1015.68
2019-01-25T02:07:15.618Z,1015.65
2019-01-25T02:08:25.351Z,1015.66
2019-01-25T02:09:34.830Z,1015.66
2019-01-25T02:10:44.573Z,1015.63
2019-01-25T02:11:54.325Z,1015.58
2019-01-25T02:13:03.807Z,1015.61
2019-01-25T02:14:13.550Z,1015.57
2019-01-25T02:15:23.537Z,1015.52
2019-01-25T02:16:33.533Z,1015.57
2019-01-25T02:17:43.015Z,1015.61
2019-01-25T02:18:52.249Z,1015.6
2019-01-25T02:20:02.253Z,1015.54
2019-01-25T02:21:11.988Z,1015.6
2019-01-25T02:22:21.726Z,1015.52
2019-01-25T02:23:31.456Z,1015.54
2019-01-25T02:24:41.187Z,1015.55
2019-01-25T02:25:50.425Z,1015.59
2019-01-25T02:27:00.412Z,1015.5
2019-01-25T02:28:09.889Z,1015.54
2019-01-25T02:29:19.877Z,1015.53
2019-01-25T02:30:29.864Z,1015.55
2019-01-25T02:31:39.853Z,1015.48
2019-01-25T02:32:49.850Z,1015.52
2019-01-25T02:34:00.714Z,1015.57
2019-01-25T02:35:10.659Z,1015.56
2019-01-25T02:36:20.651Z,1015.58
2019-01-25T02:37:30.413Z,1015.58
2019-01-25T02:38:40.426Z,1015.54
2019-01-25T02:39:50.418Z,1015.51
2019-01-25T02:41:00.161Z,1015.54
2019-01-25T02:42:10.177Z,1015.55
2019-01-25T02:43:20.166Z,1015.54
2019-01-25T02:44:29.649Z,1015.52
2019-01-25T02:45:39.641Z,1015.54
2019-01-25T02:46:49.383Z,1015.5
2019-01-25T02:47:58.898Z,1015.49
2019-01-25T02:49:08.642Z,1015.5
2019-01-25T02:50:18.412Z,1015.5
2019-01-25T02:51:28.147Z,1015.51
2019-01-25T02:52:37.630Z,1015.49
2019-01-25T02:53:47.374Z,1015.52
2019-01-25T02:54:57.392Z,1015.43
2019-01-25T02:56:07.135Z,1015.49
2019-01-25T02:57:16.619Z,1015.44
2019-01-25T02:58:26.358Z,1015.43
2019-01-25T02:59:35.839Z,1015.43
2019-01-25T03:00:45.575Z,1015.42
2019-01-25T03:01:55.565Z,1015.4
2019-01-25T03:03:05.563Z,1015.4
2019-01-25T03:04:15.559Z,1015.43
2019-01-25T03:05:25.290Z,1015.39
2019-01-25T03:06:35.035Z,1015.43
2019-01-25T03:07:44.775Z,1015.47
2019-01-25T03:08:54.271Z,1015.46
2019-01-25T03:10:04.043Z,1015.42
2019-01-25T03:11:13.274Z,1015.42
2019-01-25T03:12:23.021Z,1015.38
2019-01-25T03:13:32.520Z,1015.44
2019-01-25T03:14:42.002Z,1015.47
2019-01-25T03:15:51.995Z,1015.42
2019-01-25T03:17:01.764Z,1015.46
2019-01-25T03:18:11.251Z,1015.48
2019-01-25T03:19:20.998Z,1015.39
2019-01-25T03:20:30.998Z,1015.42
2019-01-25T03:21:40.988Z,1015.42
2019-01-25T03:22:50.741Z,1015.42
2019-01-25T03:24:00.760Z,1015.39
2019-01-25T03:25:10.512Z,1015.39
2019-01-25T03:26:20.501Z,1015.35
2019-01-25T03:27:30.494Z,1015.37
2019-01-25T03:28:39.713Z,1015.38
2019-01-25T03:29:49.674Z,1015.39
2019-01-25T03:30:59.169Z,1015.38
2019-01-25T03:32:09.163Z,1015.34
2019-01-25T03:33:19.175Z,1015.37
2019-01-25T03:34:29.178Z,1015.32
2019-01-25T03:35:38.618Z,1015.38
2019-01-25T03:36:48.588Z,1015.37
2019-01-25T03:37:58.049Z,1015.41
2019-01-25T03:39:08.019Z,1015.44
2019-01-25T03:40:17.739Z,1015.47
2019-01-25T03:41:27.700Z,1015.48
2019-01-25T03:42:37.648Z,1015.46
2019-01-25T03:43:47.361Z,1015.49
2019-01-25T03:44:57.351Z,1015.48
2019-01-25T03:46:06.816Z,1015.49
2019-01-25T03:47:16.287Z,1015.47
2019-01-25T03:48:25.991Z,1015.46
2019-01-25T03:49:35.429Z,1015.49
2019-01-25T03:50:44.884Z,1015.48
2019-01-25T03:51:54.829Z,1015.51
2019-01-25T03:53:04.579Z,1015.51
2019-01-25T03:54:14.277Z,1015.48
2019-01-25T03:55:24.238Z,1015.53
2019-01-25T03:56:33.449Z,1015.5
2019-01-25T03:57:43.408Z,1015.52
2019-01-25T03:58:53.153Z,1015.49
2019-01-25T04:00:02.875Z,1015.52
2019-01-25T04:01:12.839Z,1015.47
2019-01-25T04:02:22.779Z,1015.46
2019-01-25T04:03:32.743Z,1015.47
2019-01-25T04:04:42.439Z,1015.47
2019-01-25T04:05:51.640Z,1015.47
2019-01-25T04:07:01.371Z,1015.47
2019-01-25T04:08:11.109Z,1015.48
2019-01-25T04:09:20.839Z,1015.53
2019-01-25T04:10:30.663Z,1015.51
2019-01-25T04:11:40.390Z,1015.51
2019-01-25T04:12:50.345Z,1015.52
2019-01-25T04:14:00.319Z,1015.49
2019-01-25T04:15:10.038Z,1015.46
2019-01-25T04:16:19.515Z,1015.43
2019-01-25T04:17:28.955Z,1015.41
2019-01-25T04:18:38.890Z,1015.37
2019-01-25T04:19:48.812Z,1015.39
2019-01-25T04:20:58.257Z,1015.36
2019-01-25T04:22:08.234Z,1015.4
2019-01-25T04:23:17.700Z,1015.42
2019-01-25T04:24:27.430Z,1015.45
2019-01-25T04:25:37.159Z,1015.49
2019-01-25T04:26:47.114Z,1015.47
2019-01-25T04:27:56.840Z,1015.54
2019-01-25T04:29:06.569Z,1015.51
2019-01-25T04:30:16.552Z,1015.49
2019-01-25T04:31:26.260Z,1015.52
2019-01-25T04:32:36.201Z,1015.5
2019-01-25T04:33:45.884Z,1015.5
2019-01-25T04:34:55.843Z,1015.52
2019-01-25T04:36:05.383Z,1015.49
2019-01-25T04:37:14.856Z,1015.49
2019-01-25T04:38:24.586Z,1015.47
2019-01-25T04:39:33.801Z,1015.5
2019-01-25T04:40:43.786Z,1015.49
2019-01-25T04:41:53.255Z,1015.49
2019-01-25T04:43:03.202Z,1015.47
2019-01-25T04:44:12.890Z,1015.51
2019-01-25T04:45:22.868Z,1015.56
2019-01-25T04:46:32.567Z,1015.54
2019-01-25T04:47:41.517Z,1015.59
2019-01-25T04:48:51.516Z,1015.61
2019-01-25T04:50:01.249Z,1015.59
2019-01-25T04:51:10.974Z,1015.64
2019-01-25T04:52:20.683Z,1015.62
2019-01-25T04:53:30.129Z,1015.64
2019-01-25T04:54:39.826Z,1015.61
2019-01-25T04:55:49.772Z,1015.66
2019-01-25T04:57:00.670Z,1015.65
2019-01-25T04:58:10.635Z,1015.63
2019-01-25T04:59:20.351Z,1015.68
2019-01-25T05:00:30.319Z,1015.76
2019-01-25T05:01:40.043Z,1015.79
2019-01-25T05:02:49.736Z,1015.79
2019-01-25T05:03:59.442Z,1015.84
2019-01-25T05:05:09.420Z,1015.79
2019-01-25T05:06:18.853Z,1015.8
2019-01-25T05:07:28.557Z,1015.82
2019-01-25T05:08:38.486Z,1015.87
2019-01-25T05:09:47.658Z,1015.83
2019-01-25T05:10:57.573Z,1015.86
2019-01-25T05:12:07.317Z,1015.8
2019-01-25T05:13:17.243Z,1015.77
2019-01-25T05:14:26.978Z,1015.75
2019-01-25T05:15:36.668Z,1015.75
2019-01-25T05:16:46.344Z,1015.79
2019-01-25T05:17:56.263Z,1015.75
2019-01-25T05:19:05.955Z,1015.71
2019-01-25T05:20:15.391Z,1015.7
2019-01-25T05:21:24.818Z,1015.75
2019-01-25T05:22:34.754Z,1015.82
2019-01-25T05:23:44.433Z,1015.82
2019-01-25T05:24:54.113Z,1015.83
2019-01-25T05:26:04.097Z,1015.8
2019-01-25T05:27:13.769Z,1015.73
2019-01-25T05:28:23.445Z,1015.72
2019-01-25T05:29:33.371Z,1015.72
2019-01-25T05:30:42.879Z,1015.79
2019-01-25T05:31:52.799Z,1015.75
2019-01-25T05:33:02.722Z,1015.81
2019-01-25T05:34:11.656Z,1015.85
2019-01-25T05:35:21.342Z,1015.79
2019-01-25T05:36:31.098Z,1015.84
2019-01-25T05:37:40.774Z,1015.81
2019-01-25T05:38:50.699Z,1015.87
2019-01-25T05:40:00.170Z,1015.85
2019-01-25T05:41:10.119Z,1015.83
2019-01-25T05:42:19.848Z,1015.81
2019-01-25T05:43:29.511Z,1015.81
2019-01-25T05:44:39.443Z,1015.83
2019-01-25T05:45:49.371Z,1015.87
2019-01-25T05:46:59.048Z,1015.88
2019-01-25T05:48:08.475Z,1015.88
2019-01-25T05:49:18.146Z,1015.88
2019-01-25T05:50:27.574Z,1015.86
2019-01-25T05:51:37.500Z,1015.9
2019-01-25T05:52:47.426Z,1015.84
2019-01-25T05:53:56.846Z,1015.85
2019-01-25T05:55:06.777Z,1015.85
2019-01-25T05:56:16.450Z,1015.83
2019-01-25T05:57:25.615Z,1015.85
2019-01-25T05:58:35.030Z,1015.86
2019-01-25T05:59:44.954Z,1015.88
2019-01-25T06:00:54.883Z,1015.84
2019-01-25T06:02:04.307Z,1015.83
2019-01-25T06:03:13.989Z,1015.83
2019-01-25T06:04:23.435Z,1015.83
2019-01-25T06:05:33.356Z,1015.83
2019-01-25T06:06:43.272Z,1015.94
2019-01-25T06:07:52.710Z,1015.95
2019-01-25T06:09:01.883Z,1015.95
2019-01-25T06:10:11.062Z,1015.97
2019-01-25T06:11:20.732Z,1015.96
2019-01-25T06:12:36.015Z,1015.99
2019-01-25T06:13:45.700Z,1016.03
2019-01-25T06:14:55.120Z,1016
2019-01-25T06:16:04.543Z,1015.95
2019-01-25T06:17:14.463Z,1015.95
2019-01-25T06:18:24.405Z,1015.92
2019-01-25T06:19:34.334Z,1015.92
2019-01-25T06:20:44.831Z,1015.98
2019-01-25T06:21:54.515Z,1015.94
2019-01-25T06:23:04.192Z,1015.85
2019-01-25T06:24:13.612Z,1015.87
2019-01-25T06:25:23.025Z,1015.84
2019-01-25T06:26:32.695Z,1015.78
2019-01-25T06:27:41.860Z,1015.81
2019-01-25T06:28:51.287Z,1015.82
2019-01-25T06:30:00.464Z,1015.87
2019-01-25T06:31:10.138Z,1015.84
2019-01-25T06:32:19.555Z,1015.85
2019-01-25T06:33:29.468Z,1015.86
2019-01-25T06:34:39.141Z,1015.87
2019-01-25T06:35:49.064Z,1015.88
2019-01-25T06:36:58.758Z,1015.89
2019-01-25T06:38:07.938Z,1015.86
2019-01-25T06:39:17.356Z,1015.85
2019-01-25T06:40:26.774Z,1015.82
2019-01-25T06:41:43.757Z,1015.86
2019-01-25T06:42:53.958Z,1015.87
2019-01-25T06:44:03.130Z,1015.89
2019-01-25T06:45:12.806Z,1015.87
2019-01-25T06:46:22.479Z,1015.89
2019-01-25T06:47:32.401Z,1015.9
2019-01-25T06:48:42.075Z,1015.97
2019-01-25T06:49:51.746Z,1015.96
2019-01-25T06:51:01.461Z,1015.92
2019-01-25T06:52:10.884Z,1015.95
2019-01-25T06:53:20.354Z,1015.93
2019-01-25T06:54:30.026Z,1015.92
2019-01-25T06:55:39.443Z,1015.92
2019-01-25T06:56:49.119Z,1015.92
2019-01-25T06:57:58.713Z,1015.87
2019-01-25T06:59:08.631Z,1015.91
2019-01-25T07:00:18.056Z,1015.93
2019-01-25T07:01:27.226Z,1015.85
2019-01-25T07:02:36.933Z,1015.95
2019-01-25T07:03:46.261Z,1015.9
2019-01-25T07:04:55.929Z,1015.89
2019-01-25T07:06:05.348Z,1015.9
2019-01-25T07:07:15.011Z,1015.9
2019-01-25T07:08:24.181Z,1015.88
2019-01-25T07:09:33.653Z,1015.85
2019-01-25T07:10:43.320Z,1015.82
2019-01-25T07:11:52.738Z,1015.83
2019-01-25T07:13:01.912Z,1015.84
2019-01-25T07:14:11.331Z,1015.9
2019-01-25T07:15:20.996Z,1015.87
2019-01-25T07:16:30.164Z,1015.89
2019-01-25T07:17:39.835Z,1015.92
2019-01-25T07:18:48.765Z,1015.9
2019-01-25T07:19:58.184Z,1015.9
2019-01-25T07:21:07.349Z,1015.94
2019-01-25T07:22:16.777Z,1015.95
2019-01-25T07:23:26.440Z,1015.97
2019-01-25T07:24:35.856Z,1015.99
2019-01-25T07:25:47.020Z,1016.03
2019-01-25T07:26:56.437Z,1015.99
2019-01-25T07:28:06.099Z,1015.96
2019-01-25T07:29:15.764Z,1015.93
2019-01-25T07:30:25.700Z,1015.98
2019-01-25T07:31:35.662Z,1016.02
2019-01-25T07:32:46.860Z,1015.99
2019-01-25T07:33:56.580Z,1015.98
2019-01-25T07:35:06.313Z,1015.99
2019-01-25T07:36:16.293Z,1016.04
2019-01-25T07:37:26.037Z,1016.11
2019-01-25T07:38:35.476Z,1016.05
2019-01-25T07:39:44.693Z,1016.04
2019-01-25T07:40:54.441Z,1016.06
2019-01-25T07:42:04.473Z,1016.03
2019-01-25T07:43:14.443Z,1016.03
2019-01-25T07:44:23.941Z,1016
2019-01-25T07:45:33.961Z,1016.01
2019-01-25T07:46:43.968Z,1016.03
2019-01-25T07:47:53.678Z,1016.02
2019-01-25T07:49:03.675Z,1016.01
2019-01-25T07:50:13.415Z,1016.02
2019-01-25T07:51:23.347Z,1016.03
2019-01-25T07:52:33.401Z,1016.02
2019-01-25T07:53:43.113Z,1016
2019-01-25T07:54:53.161Z,1016.01
2019-01-25T07:56:03.341Z,1015.95
2019-01-25T07:57:13.085Z,1015.94
2019-01-25T07:58:22.891Z,1016.01
2019-01-25T07:59:32.628Z,1016.04
2019-01-25T08:00:42.110Z,1016.01
2019-01-25T08:01:52.046Z,1016.04
2019-01-25T08:03:01.576Z,1016.02
2019-01-25T08:04:11.303Z,1016.05
2019-01-25T08:05:20.825Z,1016.08
2019-01-25T08:06:30.312Z,1016.09
2019-01-25T08:07:40.231Z,1016.12
2019-01-25T08:08:50.220Z,1016.09
2019-01-25T08:09:59.979Z,1016.02
2019-01-25T08:11:10.162Z,1015.91
2019-01-25T08:12:20.157Z,1015.95
2019-01-25T08:13:29.641Z,1015.98
2019-01-25T08:14:39.361Z,1016.02
2019-01-25T08:15:49.150Z,1016.03
2019-01-25T08:16:58.863Z,1016.07
2019-01-25T08:18:08.825Z,1016.1
2019-01-25T08:19:18.895Z,1016.11
2019-01-25T08:20:28.956Z,1016.1
2019-01-25T08:21:38.369Z,1016.08
2019-01-25T08:22:48.339Z,1015.99
2019-01-25T08:23:58.156Z,1016.01
2019-01-25T08:25:08.256Z,1016.01
2019-01-25T08:26:17.980Z,1016.01
2019-01-25T08:27:27.854Z,1015.99
2019-01-25T08:28:37.652Z,1015.96
2019-01-25T08:29:47.620Z,1015.97
2019-01-25T08:30:57.418Z,1015.94
2019-01-25T08:32:07.194Z,1015.97
2019-01-25T08:33:16.779Z,1015.98
2019-01-25T08:34:26.990Z,1016
2019-01-25T08:35:36.471Z,1016.02
2019-01-25T08:36:46.314Z,1015.98
2019-01-25T08:37:56.433Z,1016
2019-01-25T08:39:07.144Z,1016.02
2019-01-25T08:40:17.019Z,1015.99
2019-01-25T08:41:26.400Z,1015.94
2019-01-25T08:42:36.432Z,1015.92
2019-01-25T08:43:46.169Z,1015.93
2019-01-25T08:44:55.875Z,1015.94
2019-01-25T08:46:07.177Z,1015.91
2019-01-25T08:47:16.909Z,1015.95
2019-01-25T08:48:29.038Z,1015.93
2019-01-25T08:49:38.931Z,1015.93
2019-01-25T08:50:48.785Z,1015.98
2019-01-25T08:51:58.887Z,1015.98
2019-01-25T08:53:11.226Z,1016.01
2019-01-25T08:54:21.189Z,1016
2019-01-25T08:55:31.084Z,1016
2019-01-25T08:56:40.813Z,1016.02
2019-01-25T08:57:50.517Z,1016.02
2019-01-25T08:59:00.319Z,1016.08
2019-01-25T09:00:10.083Z,1016.04
2019-01-25T09:01:20.008Z,1016.13
2019-01-25T09:02:29.686Z,1016.1
2019-01-25T09:03:39.112Z,1016.08
2019-01-25T09:04:49.036Z,1016.04
2019-01-25T09:05:58.963Z,1016.09
2019-01-25T09:07:08.880Z,1016.04
2019-01-25T09:08:18.548Z,1016.14
2019-01-25T09:09:28.214Z,1016.13
2019-01-25T09:10:37.883Z,1016.05
2019-01-25T09:11:47.809Z,1016.04
2019-01-25T09:12:57.730Z,1016.05
2019-01-25T09:14:07.404Z,1016.05
2019-01-25T09:15:17.326Z,1016.01
2019-01-25T09:16:27.702Z,1016
2019-01-25T09:17:37.393Z,1015.96
2019-01-25T09:18:47.316Z,1015.97
2019-01-25T09:19:57.255Z,1015.92
2019-01-25T09:21:06.935Z,1015.94
2019-01-25T09:22:16.356Z,1015.92
2019-01-25T09:23:25.527Z,1015.9
2019-01-25T09:24:34.693Z,1015.84
2019-01-25T09:25:44.357Z,1015.84
2019-01-25T09:27:01.500Z,1015.83
2019-01-25T09:28:11.421Z,1015.86
2019-01-25T09:29:21.091Z,1015.82
2019-01-25T09:30:30.274Z,1015.77
2019-01-25T09:31:40.237Z,1015.75
2019-01-25T09:32:49.910Z,1015.82
2019-01-25T09:33:59.346Z,1015.79
2019-01-25T09:35:09.026Z,1015.77
2019-01-25T09:36:18.699Z,1015.75
2019-01-25T09:37:28.119Z,1015.76
2019-01-25T09:38:37.605Z,1015.77
2019-01-25T09:39:47.383Z,1015.72
2019-01-25T09:40:57.302Z,1015.71
2019-01-25T09:42:06.982Z,1015.78
2019-01-25T09:43:16.896Z,1015.76
2019-01-25T09:44:26.622Z,1015.77
2019-01-25T09:45:36.049Z,1015.7
2019-01-25T09:46:45.728Z,1015.81
2019-01-25T09:47:56.391Z,1015.76
2019-01-25T09:49:06.307Z,1015.77
2019-01-25T09:50:16.285Z,1015.77
2019-01-25T09:51:25.960Z,1015.75
2019-01-25T09:52:35.642Z,1015.77
2019-01-25T09:53:44.822Z,1015.72
2019-01-25T09:54:55.314Z,1015.79
2019-01-25T09:56:04.982Z,1015.76
2019-01-25T09:57:14.653Z,1015.8
2019-01-25T09:58:24.092Z,1015.82
2019-01-25T09:59:33.267Z,1015.82
2019-01-25T10:00:43.194Z,1015.81
2019-01-25T10:01:53.117Z,1015.83
2019-01-25T10:03:02.786Z,1015.84
2019-01-25T10:04:12.458Z,1015.89
2019-01-25T10:05:22.380Z,1015.88
2019-01-25T10:06:32.316Z,1015.93
2019-01-25T10:07:42.235Z,1015.88
2019-01-25T10:08:51.906Z,1015.88
2019-01-25T10:10:01.075Z,1015.84
2019-01-25T10:11:10.499Z,1015.78
2019-01-25T10:12:20.414Z,1015.74
2019-01-25T10:13:29.833Z,1015.74
2019-01-25T10:14:39.505Z,1015.74
2019-01-25T10:15:49.190Z,1015.72
2019-01-25T10:16:59.114Z,1015.73
2019-01-25T10:18:08.778Z,1015.74
2019-01-25T10:19:18.196Z,1015.72
2019-01-25T10:20:28.119Z,1015.7
2019-01-25T10:21:37.824Z,1015.66
2019-01-25T10:22:47.491Z,1015.66
2019-01-25T10:23:57.183Z,1015.63
2019-01-25T10:25:07.100Z,1015.68
2019-01-25T10:26:16.522Z,1015.6
2019-01-25T10:27:26.439Z,1015.6
2019-01-25T10:28:36.381Z,1015.67
2019-01-25T10:29:46.107Z,1015.58
2019-01-25T10:30:55.281Z,1015.55
2019-01-25T10:32:05.201Z,1015.57
2019-01-25T10:33:15.118Z,1015.54
2019-01-25T10:34:25.044Z,1015.61
2019-01-25T10:35:34.968Z,1015.57
2019-01-25T10:36:44.895Z,1015.55
2019-01-25T10:37:54.578Z,1015.52
2019-01-25T10:39:05.080Z,1015.49
2019-01-25T10:40:14.248Z,1015.5
2019-01-25T10:41:23.684Z,1015.48
2019-01-25T10:42:33.395Z,1015.4
2019-01-25T10:43:56.007Z,1015.41
2019-01-25T10:45:05.683Z,1015.44
2019-01-25T10:46:15.355Z,1015.39
2019-01-25T10:47:25.027Z,1015.38
2019-01-25T10:48:34.699Z,1015.38
2019-01-25T10:49:44.617Z,1015.29
2019-01-25T10:50:53.793Z,1015.31
2019-01-25T10:52:03.218Z,1015.31
2019-01-25T10:53:14.106Z,1015.29
2019-01-25T10:54:23.026Z,1015.33
2019-01-25T10:55:32.467Z,1015.34
2019-01-25T10:56:42.096Z,1015.31
2019-01-25T10:57:51.776Z,1015.25
2019-01-25T10:59:01.203Z,1015.33
2019-01-25T11:00:10.373Z,1015.26
2019-01-25T11:01:20.298Z,1015.25
2019-01-25T11:02:29.722Z,1015.2
2019-01-25T11:03:39.639Z,1015.23
2019-01-25T11:04:49.400Z,1015.17
2019-01-25T11:05:59.333Z,1015.15
2019-01-25T11:07:09.015Z,1015.09
2019-01-25T11:08:18.689Z,1015.1
2019-01-25T11:09:28.357Z,1015.03
2019-01-25T11:10:42.937Z,1015.06
2019-01-25T11:11:52.859Z,1015.04
2019-01-25T11:13:02.527Z,1014.99
2019-01-25T11:14:12.202Z,1015.01
2019-01-25T11:15:21.646Z,1014.99
2019-01-25T11:16:31.071Z,1015.02
2019-01-25T11:17:40.490Z,1014.96
2019-01-25T11:18:51.436Z,1015
2019-01-25T11:20:00.611Z,1014.93
2019-01-25T11:21:11.309Z,1014.96
2019-01-25T11:22:21.037Z,1015.04
2019-01-25T11:23:30.709Z,1014.97
2019-01-25T11:24:40.702Z,1015.03
2019-01-25T11:25:50.381Z,1015.02
2019-01-25T11:27:00.515Z,1014.96
2019-01-25T11:28:09.954Z,1014.99
2019-01-25T11:29:19.626Z,1014.96
2019-01-25T11:30:29.309Z,1014.95
2019-01-25T11:31:38.743Z,1014.95
2019-01-25T11:32:48.430Z,1014.99
2019-01-25T11:33:57.598Z,1014.93
2019-01-25T11:35:07.525Z,1014.92
2019-01-25T11:36:17.263Z,1014.91
2019-01-25T11:37:26.691Z,1014.95
2019-01-25T11:38:36.123Z,1014.87
2019-01-25T11:39:49.139Z,1014.85
2019-01-25T11:40:59.238Z,1014.88
2019-01-25T11:42:08.903Z,1014.87
2019-01-25T11:43:18.330Z,1014.9
2019-01-25T11:44:28.008Z,1014.83
2019-01-25T11:45:37.709Z,1014.76
2019-01-25T11:46:47.387Z,1014.78
2019-01-25T11:47:58.709Z,1014.74
2019-01-25T11:49:08.487Z,1014.72
2019-01-25T11:50:17.910Z,1014.66
2019-01-25T11:51:27.582Z,1014.62
2019-01-25T11:52:37.248Z,1014.66
2019-01-25T11:53:47.177Z,1014.68
2019-01-25T11:54:56.353Z,1014.72
2019-01-25T11:56:05.526Z,1014.75
2019-01-25T11:57:15.197Z,1014.79
2019-01-25T11:58:25.862Z,1014.76
2019-01-25T11:59:35.787Z,1014.76
2019-01-25T12:00:45.712Z,1014.74
2019-01-25T12:01:55.632Z,1014.65
2019-01-25T12:03:05.061Z,1014.65
2019-01-25T12:04:16.557Z,1014.67
2019-01-25T12:05:26.483Z,1014.66
2019-01-25T12:06:36.159Z,1014.64
2019-01-25T12:07:46.078Z,1014.61
2019-01-25T12:08:55.501Z,1014.58
2019-01-25T12:10:05.424Z,1014.56
2019-01-25T12:11:15.109Z,1014.62
2019-01-25T12:12:24.792Z,1014.59
2019-01-25T12:13:34.463Z,1014.62
2019-01-25T12:14:44.405Z,1014.66
2019-01-25T12:15:53.830Z,1014.62
2019-01-25T12:17:03.260Z,1014.59
2019-01-25T12:18:12.962Z,1014.6
2019-01-25T12:19:23.226Z,1014.53
2019-01-25T12:20:33.150Z,1014.5
2019-01-25T12:21:43.070Z,1014.42
2019-01-25T12:22:52.998Z,1014.46
2019-01-25T12:24:02.688Z,1014.4
2019-01-25T12:25:11.610Z,1014.37
2019-01-25T12:26:21.279Z,1014.35
2019-01-25T12:27:30.954Z,1014.28
2019-01-25T12:28:40.876Z,1014.29
2019-01-25T12:29:51.948Z,1014.27
2019-01-25T12:31:01.872Z,1014.28
2019-01-25T12:32:11.292Z,1014.29
2019-01-25T12:33:21.246Z,1014.31
2019-01-25T12:34:31.229Z,1014.33
2019-01-25T12:35:40.926Z,1014.29
2019-01-25T12:36:50.381Z,1014.2
2019-01-25T12:38:05.216Z,1014.23
2019-01-25T12:39:14.671Z,1014.24
2019-01-25T12:40:24.350Z,1014.18
2019-01-25T12:41:33.772Z,1014.19
2019-01-25T12:42:43.692Z,1014.18
2019-01-25T12:43:53.615Z,1014.15
2019-01-25T12:45:03.536Z,1014.14
2019-01-25T12:46:13.454Z,1014.11
2019-01-25T12:47:22.626Z,1014.02
2019-01-25T12:48:32.298Z,1014.07
2019-01-25T12:49:41.717Z,1014.06
2019-01-25T12:50:51.420Z,1014.08
2019-01-25T12:52:00.843Z,1014.02
2019-01-25T12:53:15.863Z,1014
2019-01-25T12:54:25.718Z,1013.93
2019-01-25T12:55:35.696Z,1014.01
2019-01-25T12:56:45.130Z,1013.99
2019-01-25T12:57:54.809Z,1013.93
2019-01-25T12:59:04.329Z,1013.9
2019-01-25T13:00:13.616Z,1013.92
2019-01-25T13:01:23.309Z,1013.95
2019-01-25T13:02:37.606Z,1013.96
2019-01-25T13:03:47.287Z,1013.96
2019-01-25T13:04:57.218Z,1014.02
2019-01-25T13:06:06.385Z,1014.02
2019-01-25T13:07:15.935Z,1013.97
2019-01-25T13:08:25.860Z,1013.94
2019-01-25T13:09:35.565Z,1013.89
2019-01-25T13:10:45.255Z,1013.82
2019-01-25T13:11:54.929Z,1013.74
2019-01-25T13:13:04.713Z,1013.69
2019-01-25T13:14:14.426Z,1013.7
2019-01-25T13:15:24.097Z,1013.71
2019-01-25T13:16:33.806Z,1013.71
2019-01-25T13:17:43.485Z,1013.69
2019-01-25T13:18:52.669Z,1013.65
2019-01-25T13:20:02.593Z,1013.71
2019-01-25T13:21:12.549Z,1013.59
2019-01-25T13:22:22.041Z,1013.53
2019-01-25T13:23:32.873Z,1013.55
2019-01-25T13:24:42.054Z,1013.5
2019-01-25T13:25:51.241Z,1013.49
2019-01-25T13:27:01.220Z,1013.49
2019-01-25T13:28:11.315Z,1013.41
2019-01-25T13:29:25.993Z,1013.41
2019-01-25T13:30:35.932Z,1013.42
2019-01-25T13:31:45.863Z,1013.36
2019-01-25T13:32:56.082Z,1013.34
2019-01-25T13:34:06.255Z,1013.29
2019-01-25T13:35:15.852Z,1013.33
2019-01-25T13:36:25.950Z,1013.39
2019-01-25T13:37:36.049Z,1013.37
2019-01-25T13:38:45.997Z,1013.34
2019-01-25T13:39:55.934Z,1013.37
2019-01-25T13:41:05.862Z,1013.36
2019-01-25T13:42:15.531Z,1013.35
2019-01-25T13:43:25.457Z,1013.28
2019-01-25T13:44:41.594Z,1013.3
2019-01-25T13:45:51.520Z,1013.3
2019-01-25T13:47:01.186Z,1013.32
2019-01-25T13:48:10.614Z,1013.28
2019-01-25T13:49:20.043Z,1013.29
2019-01-25T13:50:30.012Z,1013.26
2019-01-25T13:51:39.184Z,1013.26
2019-01-25T13:52:49.156Z,1013.23
2019-01-25T13:53:58.583Z,1013.22
2019-01-25T13:55:08.255Z,1013.23
2019-01-25T13:56:17.678Z,1013.22
2019-01-25T13:57:27.108Z,1013.26
2019-01-25T13:58:37.028Z,1013.35
2019-01-25T13:59:46.707Z,1013.39
2019-01-25T14:00:57.750Z,1013.39
2019-01-25T14:02:07.419Z,1013.36
2019-01-25T14:03:17.097Z,1013.33
2019-01-25T14:04:26.518Z,1013.38
2019-01-25T14:05:36.196Z,1013.3
2019-01-25T14:06:45.623Z,1013.29
2019-01-25T14:07:55.041Z,1013.28